createdAt,value
2022-10-08T00:01:18.717Z,98563.26380710794
2022-10-08T00:04:17.357Z,98562.88558783528
2022-10-08T00:07:17.420Z,98562.80515904227
2022-10-08T00:11:20.550Z,98560.34070297815
2022-10-08T00:14:17.371Z,98560.70326185049
2022-10-08T00:17:17.204Z,98560.48710299414
2022-10-08T00:21:19.973Z,98564.64403778824
2022-10-08T00:24:18.312Z,98559.5326600009
2022-10-08T00:27:17.494Z,98562.96669057444
2022-10-08T00:31:19.090Z,98563.96227456232
2022-10-08T00:34:20.045Z,98561.91028636278
2022-10-08T00:37:22.552Z,98560.00239967725
2022-10-08T00:41:19.995Z,98562.43835311309
2022-10-08T00:44:53.241Z,98555.41597352382
2022-10-08T00:47:23.005Z,98559.26147677463
2022-10-08T00:51:17.500Z,98554.2245385944
2022-10-08T00:54:20.148Z,98552.19562176648
2022-10-08T00:57:17.625Z,98550.91251926933
2022-10-08T01:01:17.159Z,98539.43602501691
2022-10-08T01:04:16.931Z,98533.76324361797
2022-10-08T01:07:23.839Z,98528.24357340069
2022-10-08T01:11:32.699Z,98529.52134928612
2022-10-08T01:14:32.556Z,98531.69563740287
2022-10-08T01:17:25.609Z,98529.9210273199
2022-10-08T01:21:22.162Z,98521.57184057031
2022-10-08T01:24:27.707Z,98522.35786069055
2022-10-08T01:27:22.175Z,98519.92733483571
2022-10-08T01:31:24.421Z,98520.04637097218
2022-10-08T01:34:25.178Z,98516.65204213392
2022-10-08T01:37:24.034Z,98510.52980711937
2022-10-08T01:41:18.357Z,98512.86489524652
2022-10-08T01:44:22.278Z,98502.86707078667
2022-10-08T01:47:20.991Z,98509.49462082757
2022-10-08T01:51:20.603Z,98506.0971006528
2022-10-08T01:54:18.947Z,98501.0272025096
2022-10-08T01:57:17.197Z,98496.78609778141
2022-10-08T02:01:23.151Z,98493.9289496933
2022-10-08T02:04:52.844Z,98487.4712783435
2022-10-08T02:07:21.525Z,98493.10575832188
2022-10-08T02:11:16.020Z,98486.70768112285
2022-10-08T02:14:18.699Z,98490.66230324871
2022-10-08T02:17:24.329Z,98484.91423101048
2022-10-08T02:21:21.916Z,98480.07923981686
2022-10-08T02:24:20.647Z,98475.30956900076
2022-10-08T02:27:25.026Z,98474.21595300981
2022-10-08T02:31:20.368Z,98474.57164371102
2022-10-08T02:34:22.076Z,98477.54063134098
2022-10-08T02:37:22.236Z,98481.27125021897
2022-10-08T02:41:18.217Z,98478.55510440115
2022-10-08T02:44:22.992Z,98472.80103291759
2022-10-08T02:47:20.485Z,98473.45130896343
2022-10-08T02:51:18.413Z,98471.53111401567
2022-10-08T02:54:20.733Z,98475.28888504625
2022-10-08T02:57:21.671Z,98474.44661884516
2022-10-08T03:01:22.268Z,98471.74090770526
2022-10-08T03:04:23.359Z,98468.00168327993
2022-10-08T03:07:18.249Z,98463.76450532253
2022-10-08T03:11:17.286Z,98468.8707227065
2022-10-08T03:14:20.130Z,98463.39027414199
2022-10-08T03:17:24.279Z,98468.6360698633
2022-10-08T03:21:16.643Z,98466.63334738101
2022-10-08T03:24:16.788Z,98470.77226936232
2022-10-08T03:27:16.928Z,98471.94020786406
2022-10-08T03:31:16.507Z,98473.8262604971
2022-10-08T03:34:17.054Z,98472.8918676187
2022-10-08T03:37:17.251Z,98477.99353742159
2022-10-08T03:41:17.769Z,98476.98466049352
2022-10-08T03:44:18.353Z,98479.22239092618
2022-10-08T03:47:16.837Z,98474.18789118354
2022-10-08T03:51:18.908Z,98470.14236790704
2022-10-08T03:54:17.340Z,98471.80554921839
2022-10-08T03:57:17.286Z,98467.46708374588
2022-10-08T04:01:17.811Z,98468.42586785098
2022-10-08T04:04:19.646Z,98471.00656497665
2022-10-08T04:07:17.059Z,98471.414647721
2022-10-08T04:11:17.650Z,98473.45214142802
2022-10-08T04:14:17.724Z,98475.3485436736
2022-10-08T04:17:16.466Z,98473.59833746619
2022-10-08T04:21:18.438Z,98475.60892450745
2022-10-08T04:24:17.320Z,98472.66293886949
2022-10-08T04:27:17.137Z,98476.25224493015
2022-10-08T04:31:22.277Z,98471.98841268515
2022-10-08T04:34:16.982Z,98470.88752279569
2022-10-08T04:37:16.460Z,98473.2674024082
2022-10-08T04:41:18.109Z,98468.99751422046
2022-10-08T04:44:17.614Z,98466.5666212538
2022-10-08T04:47:17.291Z,98471.80381119082
2022-10-08T04:51:17.260Z,98468.46279084377
2022-10-08T04:54:16.653Z,98469.87563543362
2022-10-08T04:57:16.720Z,98469.28308385883
2022-10-08T05:01:18.864Z,98462.84215531721
2022-10-08T05:04:17.018Z,98464.60585962009
2022-10-08T05:07:16.984Z,98461.43596458653
2022-10-08T05:11:17.090Z,98461.60946853367
2022-10-08T05:14:17.054Z,98460.28592042426
2022-10-08T05:17:16.650Z,98466.49002158947
2022-10-08T05:21:18.220Z,98476.7503386025
2022-10-08T05:24:17.134Z,98475.88107412483
2022-10-08T05:27:16.794Z,98477.13090858998
2022-10-08T05:31:16.850Z,98484.30128571833
2022-10-08T05:34:17.079Z,98484.69494204677
2022-10-08T05:37:16.920Z,98494.49159797076
2022-10-08T05:41:19.010Z,98494.61892122997
2022-10-08T05:44:17.521Z,98495.23850825166
2022-10-08T05:47:16.977Z,98493.427583454
2022-10-08T05:51:16.893Z,98501.62758087239
2022-10-08T05:54:17.982Z,98497.06029530296
2022-10-08T05:57:16.305Z,98506.9259137661
2022-10-08T06:01:19.634Z,98506.91241101474
2022-10-08T06:04:17.468Z,98510.79908937142
2022-10-08T06:07:16.507Z,98519.6020063052
2022-10-08T06:11:16.473Z,98521.50371936428
2022-10-08T06:14:23.086Z,98522.76858786015
2022-10-08T06:17:16.877Z,98521.12522915853
2022-10-08T06:21:19.814Z,98531.20151945154
2022-10-08T06:24:18.017Z,98530.10465606613
2022-10-08T06:27:17.120Z,98533.36329269788
2022-10-08T06:31:17.560Z,98530.1133022055
2022-10-08T06:34:16.422Z,98536.72954949625
2022-10-08T06:37:16.812Z,98536.16178241535
2022-10-08T06:41:17.323Z,98532.83697823177
2022-10-08T06:44:19.472Z,98529.42138324486
2022-10-08T06:47:18.076Z,98530.49000955519
2022-10-08T06:51:17.681Z,98537.4726000365
2022-10-08T06:54:16.747Z,98538.18323654402
2022-10-08T06:57:16.825Z,98537.47106083686
2022-10-08T07:01:19.057Z,98539.01985494028
2022-10-08T07:04:16.782Z,98549.35282459903
2022-10-08T07:07:16.798Z,98543.10375764375
2022-10-08T07:11:17.613Z,98546.29887336634
2022-10-08T07:14:17.998Z,98542.10076789105
2022-10-08T07:17:16.519Z,98544.10867384673
2022-10-08T07:21:17.102Z,98549.55863653321
2022-10-08T07:24:16.578Z,98547.64175720727
2022-10-08T07:27:18.327Z,98547.5054330568
2022-10-08T07:31:24.615Z,98547.80855023742
2022-10-08T07:34:17.526Z,98550.7848218959
2022-10-08T07:37:17.678Z,98553.73216998293
2022-10-08T07:41:16.318Z,98559.21453166477
2022-10-08T07:44:17.822Z,98556.98096070012
2022-10-08T07:47:16.847Z,98554.91770198512
2022-10-08T07:51:17.995Z,98551.58526367835
2022-10-08T07:54:18.263Z,98549.45254616626
2022-10-08T07:57:16.683Z,98554.48113691376
2022-10-08T08:01:18.491Z,98564.89195935092
2022-10-08T08:04:16.266Z,98564.17633958576
2022-10-08T08:07:17.015Z,98563.08898598251
2022-10-08T08:11:18.821Z,98566.59676892516
2022-10-08T08:14:16.940Z,98565.09883010079
2022-10-08T08:17:17.080Z,98563.50718218707
2022-10-08T08:21:18.436Z,98564.4784770425
2022-10-08T08:24:17.949Z,98563.08956522583
2022-10-08T08:27:18.163Z,98565.66779054535
2022-10-08T08:31:18.672Z,98569.62326354261
2022-10-08T08:34:19.784Z,98575.83662500829
2022-10-08T08:37:17.118Z,98571.41667165827
2022-10-08T08:41:32.267Z,98574.48051523081
2022-10-08T08:44:55.384Z,98578.99951194116
2022-10-08T08:47:22.110Z,98580.3769356334
2022-10-08T08:51:16.461Z,98581.3332614718
2022-10-08T08:54:16.771Z,98583.49222349141
2022-10-08T08:57:30.934Z,98578.98213032116
2022-10-08T09:01:27.597Z,98572.83508784065
2022-10-08T09:04:24.360Z,98573.52640841038
2022-10-08T09:07:21.600Z,98577.48203311511
2022-10-08T09:11:19.815Z,98575.81647797255
2022-10-08T09:14:30.167Z,98573.44641710322
2022-10-08T09:17:19.465Z,98570.929481575
2022-10-08T09:21:17.456Z,98569.34376470443
2022-10-08T09:24:18.721Z,98571.1308940909
2022-10-08T09:27:16.553Z,98568.24317002457
2022-10-08T09:31:23.229Z,98565.95850832581
2022-10-08T09:34:18.937Z,98565.82736703777
2022-10-08T09:37:22.529Z,98564.50898069245
2022-10-08T09:41:18.677Z,98562.35458636346
2022-10-08T09:44:19.414Z,98561.10763888693
2022-10-08T09:47:18.680Z,98566.90633179239
2022-10-08T09:51:17.321Z,98555.0871377563
2022-10-08T09:54:22.517Z,98549.36141090939
2022-10-08T09:57:20.557Z,98539.95826498202
2022-10-08T10:01:20.451Z,98540.08097516213
2022-10-08T10:04:25.688Z,98540.6611392259
2022-10-08T10:07:18.760Z,98538.72714376826
2022-10-08T10:11:23.654Z,98538.87827533885
2022-10-08T10:14:23.110Z,98528.96487639094
2022-10-08T10:17:24.679Z,98533.68226634515
2022-10-08T10:21:22.389Z,98529.53537755454
2022-10-08T10:24:33.018Z,98521.91394751881
2022-10-08T10:27:23.826Z,98522.0931590662
2022-10-08T10:31:28.416Z,98522.31085314688
2022-10-08T10:34:20.847Z,98518.5596753306
2022-10-08T10:37:26.390Z,98515.48863510186
2022-10-08T10:41:23.106Z,98513.22859459305
2022-10-08T10:44:21.900Z,98513.70949979863
2022-10-08T10:47:19.999Z,98508.8514082216
2022-10-08T10:51:39.600Z,98506.20793415312
2022-10-08T10:54:39.714Z,98500.58783712245
2022-10-08T10:57:28.813Z,98496.29707443315
2022-10-08T11:01:30.307Z,98497.11475246937
2022-10-08T11:04:24.120Z,98494.02924397563
2022-10-08T11:07:38.076Z,98487.91738575365
2022-10-08T11:11:24.454Z,98483.8315461979
2022-10-08T11:14:34.832Z,98477.9012235376
2022-10-08T11:17:31.371Z,98478.46318142743
2022-10-08T11:21:30.278Z,98470.42003500451
2022-10-08T11:24:36.507Z,98466.65311888323
2022-10-08T11:27:26.335Z,98465.80908933625
2022-10-08T11:31:26.553Z,98458.44355687856
2022-10-08T11:34:22.649Z,98456.12264269698
2022-10-08T11:37:24.704Z,98451.84665944023
2022-10-08T11:41:26.656Z,98447.54830701607
2022-10-08T11:44:20.974Z,98449.40303303872
2022-10-08T11:47:53.301Z,98439.12364469413
2022-10-08T11:51:50.126Z,98439.37500399038
2022-10-08T11:54:25.572Z,98434.688159831
2022-10-08T11:57:20.745Z,98428.87166391523
2022-10-08T12:01:16.441Z,98427.52013911387
2022-10-08T12:04:21.229Z,98426.03931166229
2022-10-08T12:07:22.718Z,98424.79476118497
2022-10-08T12:12:12.563Z,98419.82585375659
2022-10-08T12:14:50.269Z,98418.48905250983
2022-10-08T12:17:16.690Z,98416.06528134694
2022-10-08T12:21:45.575Z,98413.53811715476
2022-10-08T12:31:22.879Z,98396.36785503755
2022-10-08T12:34:18.763Z,98391.8350858406
2022-10-08T12:37:42.665Z,98392.11299550651
2022-10-08T12:41:22.462Z,98394.369457393
2022-10-08T12:44:29.256Z,98395.46628417114
2022-10-08T12:47:28.715Z,98390.86064464867
2022-10-08T12:51:24.792Z,98386.54301097464
2022-10-08T12:54:31.801Z,98388.7073266303
2022-10-08T12:57:23.268Z,98390.83398656842
2022-10-08T13:01:19.469Z,98378.54736316396
2022-10-08T13:04:20.478Z,98377.93640647702
2022-10-08T13:07:24.657Z,98376.70179644632
2022-10-08T13:11:16.925Z,98374.59742867561
2022-10-08T13:14:28.667Z,98374.74490877728
2022-10-08T13:17:27.439Z,98376.4836300013
2022-10-08T13:21:26.786Z,98373.5146076843
2022-10-08T13:24:38.225Z,98371.99136175997
2022-10-08T13:27:26.521Z,98369.45494697095
2022-10-08T13:31:24.336Z,98367.31660402185
2022-10-08T13:34:16.860Z,98367.47476212987
2022-10-08T13:37:27.845Z,98365.74186473977
2022-10-08T13:41:23.897Z,98364.47480613292
2022-10-08T13:44:17.264Z,98361.04719429875
2022-10-08T13:47:18.782Z,98363.31561052911
2022-10-08T13:51:16.636Z,98363.88829833966
2022-10-08T13:54:22.022Z,98356.93271635259
2022-10-08T13:57:17.312Z,98358.488252337
2022-10-08T14:01:16.860Z,98351.3419926048
2022-10-08T14:04:18.098Z,98354.02510280292
2022-10-08T14:07:22.042Z,98351.45169551337
2022-10-08T14:11:18.132Z,98356.24667664026
2022-10-08T14:14:18.251Z,98356.58305823784
2022-10-08T14:17:17.410Z,98353.76272862231
2022-10-08T14:21:17.133Z,98358.22693291202
2022-10-08T14:24:17.025Z,98358.4444276101
2022-10-08T14:27:17.049Z,98356.87281573334
2022-10-08T14:31:16.346Z,98357.75050188234
2022-10-08T14:34:16.760Z,98354.37314898593
2022-10-08T14:37:16.842Z,98350.71305082775
2022-10-08T14:41:16.952Z,98349.57558289845
2022-10-08T14:44:18.346Z,98351.80086201051
2022-10-08T14:47:16.694Z,98348.88288734594
2022-10-08T14:51:16.279Z,98344.50458457177
2022-10-08T14:54:17.768Z,98341.01745833509
2022-10-08T14:57:16.413Z,98339.29237096982
2022-10-08T15:01:19.934Z,98345.83300727747
2022-10-08T15:04:19.951Z,98342.56895375683
2022-10-08T15:07:19.099Z,98341.30937882073
2022-10-08T15:11:17.093Z,98340.25073702085
2022-10-08T15:14:17.200Z,98339.6327864725
2022-10-08T15:17:16.976Z,98338.47056250929
2022-10-08T15:21:16.917Z,98338.0038296996
2022-10-08T15:24:17.813Z,98337.67543805971
2022-10-08T15:27:20.564Z,98343.1785396601
2022-10-08T15:31:18.790Z,98339.01786586008
2022-10-08T15:34:19.827Z,98337.6491377862
2022-10-08T15:37:18.530Z,98338.9100234576
2022-10-08T15:41:17.758Z,98334.04590586993
2022-10-08T15:44:19.408Z,98345.04901182065
2022-10-08T15:47:17.055Z,98343.86468834862
2022-10-08T15:51:16.171Z,98346.04885663353
2022-10-08T15:54:18.378Z,98351.39377946485
2022-10-08T15:57:17.660Z,98347.82913800108
2022-10-08T16:01:18.109Z,98356.12907667467
2022-10-08T16:04:17.590Z,98359.75733350213
2022-10-08T16:07:17.684Z,98361.06480400733
2022-10-08T16:11:18.094Z,98366.56693248478
2022-10-08T16:14:19.338Z,98368.78563128595
2022-10-08T16:17:16.780Z,98367.53435498163
2022-10-08T16:21:16.942Z,98375.02725534087
2022-10-08T16:24:16.597Z,98370.16976749193
2022-10-08T16:27:17.875Z,98370.10948441019
2022-10-08T16:31:19.337Z,98377.17753920113
2022-10-08T16:34:19.831Z,98387.7931967701
2022-10-08T16:37:16.463Z,98388.3805014451
2022-10-08T16:41:18.441Z,98392.49153358403
2022-10-08T16:44:18.714Z,98395.66435115568
2022-10-08T16:47:16.137Z,98393.07655119004
2022-10-08T16:51:16.389Z,98387.08988791623
2022-10-08T16:54:17.834Z,98391.09680002963
2022-10-08T16:57:18.336Z,98394.60121637877
2022-10-08T17:01:15.701Z,98392.41066757272
2022-10-08T17:04:17.371Z,98394.47661507448
2022-10-08T17:07:19.057Z,98395.20190735148
2022-10-08T17:11:17.407Z,98400.98342783951
2022-10-08T17:14:16.554Z,98405.14785329397
2022-10-08T17:17:16.544Z,98406.6530801464
2022-10-08T17:21:16.853Z,98412.8411699086
2022-10-08T17:24:16.641Z,98414.98902907301
2022-10-08T17:27:16.692Z,98425.09559740112
2022-10-08T17:31:18.675Z,98427.81299030762
2022-10-08T17:34:16.823Z,98431.16838541029
2022-10-08T17:37:16.989Z,98437.20182621125
2022-10-08T17:41:18.361Z,98440.27099148119
2022-10-08T17:44:18.190Z,98443.49745729216
2022-10-08T17:47:16.957Z,98442.3193714992
2022-10-08T17:51:17.851Z,98446.36552154893
2022-10-08T17:54:19.386Z,98447.41382556436
2022-10-08T17:57:16.963Z,98453.41975755009
2022-10-08T18:01:21.329Z,98453.2212688503
2022-10-08T18:04:19.126Z,98454.12488781485
2022-10-08T18:07:17.087Z,98460.86194197537
2022-10-08T18:11:16.454Z,98460.91747693346
2022-10-08T18:14:18.110Z,98464.4722199019
2022-10-08T18:17:16.724Z,98463.90680184231
2022-10-08T18:21:18.113Z,98463.83076347849
2022-10-08T18:24:18.071Z,98463.4852117794
2022-10-08T18:27:17.233Z,98461.14637898651
2022-10-08T18:31:18.737Z,98458.93602760011
2022-10-08T18:34:17.747Z,98457.05164632309
2022-10-08T18:37:17.710Z,98465.83134193423
2022-10-08T18:41:18.334Z,98467.09552604496
2022-10-08T18:44:19.675Z,98465.2022690096
2022-10-08T18:47:16.515Z,98469.75214049044
2022-10-08T18:51:19.521Z,98470.18406128832
2022-10-08T18:54:17.200Z,98467.72007569457
2022-10-08T18:57:16.427Z,98470.14380918053
2022-10-08T19:01:19.083Z,98478.08898622404
2022-10-08T19:04:20.036Z,98479.41658385035
2022-10-08T19:07:17.162Z,98480.04015533674
2022-10-08T19:11:17.861Z,98486.99559049294
2022-10-08T19:14:18.882Z,98491.59522308143
2022-10-08T19:17:16.883Z,98499.963834024
2022-10-08T19:21:16.549Z,98497.9772751572
2022-10-08T19:24:18.423Z,98499.29591763247
2022-10-08T19:27:16.460Z,98496.74980677389
2022-10-08T19:31:19.296Z,98504.77874149253
2022-10-08T19:34:20.034Z,98508.89400483362
2022-10-08T19:37:17.315Z,98506.2790334374
2022-10-08T19:41:16.259Z,98504.13486998649
2022-10-08T19:44:17.675Z,98505.43839806289
2022-10-08T19:47:16.623Z,98506.70386797201
2022-10-08T19:51:17.566Z,98507.46516979742
2022-10-08T19:54:16.845Z,98502.85584622619
2022-10-08T19:57:17.258Z,98503.64506573734
2022-10-08T20:01:19.619Z,98509.08688354974
2022-10-08T20:04:17.928Z,98506.5121285571
2022-10-08T20:07:17.726Z,98505.08375031779
2022-10-08T20:11:18.129Z,98507.64919193859
2022-10-08T20:14:16.641Z,98508.91843973132
2022-10-08T20:17:16.529Z,98509.50607845966
2022-10-08T20:21:21.375Z,98504.81600164411
2022-10-08T20:24:20.786Z,98508.41708099957
2022-10-08T20:27:20.348Z,98505.057923843
2022-10-08T20:31:19.482Z,98506.03524847532
2022-10-08T20:34:19.911Z,98504.89143740236
2022-10-08T20:37:17.994Z,98508.12572908856
2022-10-08T20:41:16.836Z,98498.96601610177
2022-10-08T20:44:18.245Z,98505.53400778885
2022-10-08T20:47:17.361Z,98503.2998612806
2022-10-08T20:51:18.460Z,98502.19004511295
2022-10-08T20:54:17.230Z,98502.17399227155
2022-10-08T20:57:16.615Z,98508.76816079662
2022-10-08T21:01:20.064Z,98509.2719845412
2022-10-08T21:04:19.713Z,98503.95793662373
2022-10-08T21:07:16.751Z,98509.70007231088
2022-10-08T21:11:18.928Z,98503.24405203554
2022-10-08T21:14:19.462Z,98502.11136968262
2022-10-08T21:17:17.861Z,98501.03091201663
2022-10-08T21:21:18.427Z,98505.65352212646
2022-10-08T21:24:17.706Z,98503.09234266973
2022-10-08T21:27:17.481Z,98501.03147686912
2022-10-08T21:31:18.886Z,98497.50707631197
2022-10-08T21:34:17.191Z,98494.45499649884
2022-10-08T21:37:17.195Z,98488.40885215384
2022-10-08T21:41:18.846Z,98487.67577011239
2022-10-08T21:44:17.940Z,98483.97289889642
2022-10-08T21:47:16.989Z,98483.19399358577
2022-10-08T21:51:18.368Z,98476.4818304337
2022-10-08T21:54:17.798Z,98478.55949819555
2022-10-08T21:57:17.333Z,98478.1808857765
2022-10-08T22:01:22.794Z,98475.60468151163
2022-10-08T22:04:18.992Z,98471.90897013745
2022-10-08T22:07:17.009Z,98477.47793066499
2022-10-08T22:11:17.535Z,98477.02250600261
2022-10-08T22:14:17.820Z,98478.73993057232
2022-10-08T22:17:16.977Z,98476.95730127719
2022-10-08T22:21:18.829Z,98472.29688455531
2022-10-08T22:24:17.688Z,98472.41008719131
2022-10-08T22:27:16.667Z,98471.1969525743
2022-10-08T22:31:19.877Z,98469.75955189764
2022-10-08T22:34:18.803Z,98475.76993782195
2022-10-08T22:37:18.738Z,98472.84060538746
2022-10-08T22:41:19.687Z,98468.76644461729
2022-10-08T22:44:17.289Z,98469.52655577642
2022-10-08T22:47:17.047Z,98465.62012607568
2022-10-08T22:51:19.636Z,98465.59297652407
2022-10-08T22:54:16.942Z,98463.93669157386
2022-10-08T22:57:16.873Z,98461.99507881729
2022-10-08T23:01:18.220Z,98463.40650003932
2022-10-08T23:04:16.759Z,98465.59027403571
2022-10-08T23:11:17.050Z,98465.60583696226
2022-10-08T23:14:17.452Z,98464.8146678412
2022-10-08T23:17:17.732Z,98464.47127802362
2022-10-08T23:21:17.630Z,98462.74063763031
2022-10-08T23:24:18.193Z,98466.92287128934
2022-10-08T23:27:17.571Z,98464.5182779266
2022-10-08T23:31:18.828Z,98466.12148821383
2022-10-08T23:34:17.369Z,98462.52387243629
2022-10-08T23:37:17.089Z,98460.34420945408
2022-10-08T23:41:16.889Z,98461.28189023705
2022-10-08T23:44:17.145Z,98460.81316639835
2022-10-08T23:47:17.010Z,98460.6687128089
2022-10-08T23:51:17.990Z,98456.69076537882
2022-10-08T23:54:17.460Z,98452.63465178173
2022-10-08T23:57:19.880Z,98456.50929822838
